Time;durP1;ratioP1;P1;durP2;ratioP2;P2;SDS_P1;SDS_P2;PMS_P1;PMS_P2;Temp;Humidity;BMP_temperature;BMP_pressure;BME280_temperature;BME280_humidity;BME280_pressure;Samples;Min_cycle;Max_cycle;Signal;HPM_P1;HPM_P2
2022/02/13 00:00:13;;;;;;;8.77;5.85;;;;;;;-3.25;100.00;93555.22;2082198;28;20021;-86
2022/02/13 00:01:14;;;;;;;10.60;5.85;;;;;;;-3.15;100.00;93558.22;2082293;28;20036;-85
2022/02/13 00:02:15;;;;;;;8.77;5.85;;;;;;;-3.28;100.00;93558.47;2081569;28;20064;-86
2022/02/13 00:03:16;;;;;;;9.57;6.22;;;;;;;-3.41;100.00;93557.63;2081919;28;20041;-85
2022/02/13 00:04:17;;;;;;;8.57;5.95;;;;;;;-3.61;100.00;93561.72;2081534;28;20871;-86
2022/02/13 00:05:18;;;;;;;8.48;5.97;;;;;;;-3.72;100.00;93557.94;2098231;28;20032;-86
2022/02/13 00:06:19;;;;;;;9.13;6.18;;;;;;;-3.75;100.00;93561.94;2081787;28;20136;-85
2022/02/13 00:07:19;;;;;;;8.77;5.50;;;;;;;-3.81;100.00;93561.38;2081525;28;20025;-85
2022/02/13 00:08:20;;;;;;;9.60;5.18;;;;;;;-3.88;100.00;93555.84;2089942;28;20405;-86
2022/02/13 00:09:21;;;;;;;8.30;5.15;;;;;;;-3.94;100.00;93554.50;2081669;28;20073;-85
2022/02/13 00:10:22;;;;;;;6.55;5.00;;;;;;;-3.89;100.00;93553.56;2081766;28;20032;-85
2022/02/13 00:11:24;;;;;;;6.78;4.90;;;;;;;-3.95;100.00;93552.19;2089614;28;20087;-84
2022/02/13 00:12:25;;;;;;;7.50;4.75;;;;;;;-3.94;100.00;93543.31;2098093;28;20024;-85
2022/02/13 00:13:26;;;;;;;7.07;4.63;;;;;;;-3.93;100.00;93544.81;2089893;28;20020;-84
2022/02/13 00:14:28;;;;;;;6.30;4.72;;;;;;;-3.83;100.00;93550.44;2089866;28;20025;-84
2022/02/13 00:15:29;;;;;;;5.57;4.75;;;;;;;-3.74;100.00;93537.34;2082028;28;20025;-84
2022/02/13 00:16:30;;;;;;;7.55;5.05;;;;;;;-3.82;100.00;93536.34;2081410;28;20029;-84
2022/02/13 00:17:31;;;;;;;6.38;4.82;;;;;;;-3.55;100.00;93542.94;2073473;28;20026;-84
2022/02/13 00:18:32;;;;;;;7.22;4.25;;;;;;;-3.60;100.00;93540.53;2081690;28;20052;-84
2022/02/13 00:19:33;;;;;;;10.68;4.95;;;;;;;-3.39;100.00;93539.78;2089729;28;20134;-85
2022/02/13 00:20:34;;;;;;;5.43;4.40;;;;;;;-3.35;100.00;93543.28;2081477;28;20408;-85
2022/02/13 00:21:35;;;;;;;7.20;4.50;;;;;;;-3.56;100.00;93538.03;2081406;28;20463;-83
2022/02/13 00:22:36;;;;;;;8.80;5.00;;;;;;;-3.65;100.00;93545.16;2073231;28;20022;-85
2022/02/13 00:23:37;;;;;;;8.30;4.70;;;;;;;-3.77;100.00;93543.22;2073306;28;20034;-84
2022/02/13 00:24:38;;;;;;;7.07;5.15;;;;;;;-3.69;100.00;93545.00;2081386;28;20156;-85
2022/02/13 00:25:39;;;;;;;8.18;5.30;;;;;;;-3.75;100.00;93548.13;2081058;28;20026;-85
2022/02/13 00:26:40;;;;;;;7.28;4.47;;;;;;;-3.82;100.00;93546.00;2080919;28;20579;-84
2022/02/13 00:27:44;;;;;;;8.07;4.88;;;;;;;-3.92;100.00;93546.34;2080936;28;20370;-85
2022/02/13 00:28:44;;;;;;;7.47;5.10;;;;;;;-3.92;100.00;93543.75;2081707;28;20045;-85
2022/02/13 00:29:45;;;;;;;8.18;4.45;;;;;;;-3.95;100.00;93549.56;2080902;28;20048;-84
2022/02/13 00:30:46;;;;;;;5.88;4.40;;;;;;;-4.01;100.00;93540.41;2081307;28;20022;-84
2022/02/13 00:31:48;;;;;;;5.15;4.50;;;;;;;-4.08;100.00;93538.28;2072632;28;20029;-85
2022/02/13 00:32:50;;;;;;;5.97;4.20;;;;;;;-4.06;100.00;93538.72;2081118;28;20022;-85
2022/02/13 00:33:52;;;;;;;5.47;4.38;;;;;;;-3.95;100.00;93539.13;2073422;28;20592;-85
2022/02/13 00:34:52;;;;;;;7.78;4.40;;;;;;;-3.75;100.00;93540.28;2080824;28;20032;-84
2022/02/13 00:35:53;;;;;;;5.03;4.00;;;;;;;-3.87;100.00;93535.72;2088712;28;20043;-85
2022/02/13 00:36:54;;;;;;;5.78;3.92;;;;;;;-3.94;100.00;93545.91;2080665;28;20061;-85
2022/02/13 00:37:55;;;;;;;6.55;4.20;;;;;;;-3.84;100.00;93533.25;2072453;28;20026;-84
2022/02/13 00:38:56;;;;;;;6.38;4.50;;;;;;;-3.96;100.00;93532.38;2073161;28;20022;-85
2022/02/13 00:39:57;;;;;;;6.60;3.83;;;;;;;-3.96;100.00;93533.16;2073281;28;20028;-85
2022/02/13 00:40:58;;;;;;;7.68;4.70;;;;;;;-3.96;100.00;93527.16;2073449;28;20018;-84
2022/02/13 00:41:59;;;;;;;6.63;4.10;;;;;;;-3.88;100.00;93528.97;2073301;28;20018;-84
2022/02/13 00:43:00;;;;;;;7.20;4.00;;;;;;;-3.89;100.00;93522.22;2073415;28;20029;-85
2022/02/13 00:44:01;;;;;;;5.68;4.13;;;;;;;-3.96;100.00;93522.72;2073122;28;20045;-84
2022/02/13 00:45:06;;;;;;;6.80;4.13;;;;;;;-4.01;100.00;93527.34;2081775;28;20033;-87
2022/02/13 00:46:06;;;;;;;4.45;4.00;;;;;;;-4.04;100.00;93526.13;2090026;28;20048;-89
2022/02/13 00:47:08;;;;;;;4.75;3.97;;;;;;;-4.01;100.00;93511.69;2089496;28;20686;-84
2022/02/13 00:48:10;;;;;;;8.15;4.82;;;;;;;-4.08;100.00;93523.41;2089649;28;20079;-85
2022/02/13 00:49:11;;;;;;;8.65;4.95;;;;;;;-4.11;100.00;93529.22;2089654;28;20021;-84
2022/02/13 00:50:12;;;;;;;5.43;4.25;;;;;;;-4.11;100.00;93521.41;2081406;28;20424;-85
2022/02/13 00:51:13;;;;;;;7.28;3.92;;;;;;;-4.11;100.00;93524.00;2080228;28;20029;-85
2022/02/13 00:52:15;;;;;;;5.28;4.03;;;;;;;-4.11;100.00;93518.78;2081761;28;20025;-84
2022/02/13 00:53:16;;;;;;;6.90;4.40;;;;;;;-4.09;100.00;93515.84;2089702;28;20077;-85
2022/02/13 00:54:17;;;;;;;5.95;4.57;;;;;;;-4.07;100.00;93526.75;2089467;28;20021;-84
2022/02/13 00:55:17;;;;;;;6.85;4.60;;;;;;;-4.08;100.00;93523.41;2089581;28;20610;-85
2022/02/13 00:56:20;;;;;;;5.65;4.43;;;;;;;-4.00;100.00;93524.41;2097803;28;20119;-85
2022/02/13 00:57:21;;;;;;;7.15;4.43;;;;;;;-4.10;100.00;93522.94;2081897;28;20546;-84
2022/02/13 00:58:22;;;;;;;6.70;4.40;;;;;;;-4.10;100.00;93520.31;2089131;28;20017;-84
2022/02/13 00:59:23;;;;;;;8.63;4.50;;;;;;;-4.12;100.00;93519.13;2081293;28;20014;-84
2022/02/13 01:00:25;;;;;;;6.38;4.65;;;;;;;-4.20;100.00;93520.66;2073200;28;20057;-84
2022/02/13 01:01:26;;;;;;;7.68;4.78;;;;;;;-4.01;100.00;93520.28;2073403;28;20084;-84
2022/02/13 01:02:27;;;;;;;6.07;4.47;;;;;;;-3.95;100.00;93528.69;2081446;28;20064;-84
2022/02/13 01:03:28;;;;;;;6.75;4.20;;;;;;;-3.74;100.00;93526.16;2097766;28;20047;-84
2022/02/13 01:04:29;;;;;;;8.23;5.05;;;;;;;-3.81;100.00;93524.03;2089388;28;20017;-84
2022/02/13 01:05:30;;;;;;;8.80;5.32;;;;;;;-3.88;100.00;93521.91;2081340;28;20017;-84
2022/02/13 01:06:31;;;;;;;8.50;5.00;;;;;;;-3.99;100.00;93514.75;2097326;28;20027;-84
2022/02/13 01:07:32;;;;;;;7.80;4.93;;;;;;;-4.08;100.00;93520.03;2081145;28;20052;-84
2022/02/13 01:08:33;;;;;;;6.15;4.80;;;;;;;-3.89;100.00;93523.00;2073022;28;20037;-84
2022/02/13 01:09:34;;;;;;;6.53;5.03;;;;;;;-3.97;100.00;93517.81;2081425;28;20519;-84
2022/02/13 01:10:35;;;;;;;7.07;5.03;;;;;;;-4.02;100.00;93513.53;2081317;28;20025;-85
2022/02/13 01:11:36;;;;;;;8.45;5.20;;;;;;;-4.11;100.00;93521.41;2072956;28;20492;-84
2022/02/13 01:12:38;;;;;;;9.23;5.18;;;;;;;-4.16;100.00;93520.81;2072996;28;20084;-84
2022/02/13 01:13:39;;;;;;;8.13;5.45;;;;;;;-4.26;100.00;93521.91;2073320;28;20472;-84
2022/02/13 01:14:40;;;;;;;7.78;5.43;;;;;;;-4.26;100.00;93521.91;2072945;28;20120;-85
2022/02/13 01:15:41;;;;;;;9.60;5.20;;;;;;;-4.17;100.00;93519.25;2073234;28;20095;-84
2022/02/13 01:16:42;;;;;;;7.45;4.82;;;;;;;-4.15;100.00;93524.94;2073043;28;20376;-85
2022/02/13 01:17:43;;;;;;;8.15;5.43;;;;;;;-4.16;100.00;93521.56;2073129;28;20036;-85
2022/02/13 01:18:44;;;;;;;6.00;4.75;;;;;;;-4.22;100.00;93522.03;2081094;28;20032;-85
2022/02/13 01:19:46;;;;;;;9.95;5.28;;;;;;;-4.22;100.00;93512.38;2073032;28;20049;-84
2022/02/13 01:20:47;;;;;;;8.10;5.93;;;;;;;-4.28;100.00;93510.25;2073072;28;20028;-85
2022/02/13 01:21:48;;;;;;;7.40;5.20;;;;;;;-4.25;100.00;93515.63;2079612;28;20073;-85
2022/02/13 01:22:49;;;;;;;7.07;4.82;;;;;;;-4.19;100.00;93514.38;2085847;28;20021;-86
2022/02/13 01:23:49;;;;;;;6.07;4.50;;;;;;;-4.24;100.00;93513.78;2081024;28;20038;-85
2022/02/13 01:24:50;;;;;;;7.75;5.20;;;;;;;-4.19;100.00;93509.16;2072904;28;20497;-85
2022/02/13 01:25:51;;;;;;;7.68;5.20;;;;;;;-4.19;100.00;93514.38;2072968;28;20025;-85
2022/02/13 01:26:52;;;;;;;8.13;4.88;;;;;;;-4.19;100.00;93514.38;2072751;28;20086;-85
2022/02/13 01:27:53;;;;;;;6.50;4.68;;;;;;;-4.27;100.00;93509.94;2072887;28;20121;-85
2022/02/13 01:28:55;;;;;;;7.45;5.13;;;;;;;-4.36;100.00;93515.19;2081058;28;20518;-85
2022/02/13 01:29:56;;;;;;;8.60;6.18;;;;;;;-4.35;100.00;93513.34;2073208;28;20092;-85
2022/02/13 01:31:02;;;;;;;9.98;5.07;;;;;;;-4.35;100.00;93510.72;2081082;28;20488;-85
2022/02/13 01:32:03;;;;;;;7.30;5.35;;;;;;;-4.36;100.00;93514.41;2082488;28;20516;-85
2022/02/13 01:33:16;;;;;;;6.78;4.78;;;;;;;-4.39;100.00;93508.00;2081255;28;20040;-85
2022/02/13 01:34:18;;;;;;;8.73;4.72;;;;;;;-4.39;100.00;93518.44;2082751;28;20118;-85
2022/02/13 01:35:19;;;;;;;11.68;4.90;;;;;;;-4.35;100.00;93513.34;2089420;28;20021;-85
2022/02/13 01:36:20;;;;;;;9.38;5.13;;;;;;;-4.37;100.00;93518.13;2080833;28;20032;-85
2022/02/13 01:37:21;;;;;;;7.30;4.60;;;;;;;-4.37;100.00;93518.13;2081003;28;20068;-85
2022/02/13 01:38:22;;;;;;;6.32;4.55;;;;;;;-4.39;100.00;93507.22;2080897;28;20052;-84
2022/02/13 01:39:23;;;;;;;7.05;4.40;;;;;;;-4.15;100.00;93515.28;2072618;28;20124;-85
2022/02/13 01:40:24;;;;;;;6.50;4.53;;;;;;;-4.27;100.00;93511.78;2072869;28;20017;-85
2022/02/13 01:41:25;;;;;;;8.25;4.38;;;;;;;-4.26;100.00;93516.69;2072840;28;20072;-85
2022/02/13 01:42:26;;;;;;;8.27;4.78;;;;;;;-4.22;100.00;93520.19;2080903;28;20116;-84
2022/02/13 01:43:28;;;;;;;4.90;4.25;;;;;;;-4.31;100.00;93516.84;2080891;28;20476;-84
2022/02/13 01:44:32;;;;;;;7.78;4.53;;;;;;;-4.36;100.00;93514.41;2073039;28;20104;-85
2022/02/13 01:45:33;;;;;;;7.95;4.70;;;;;;;-4.39;100.00;93515.03;2081774;28;20071;-84
2022/02/13 01:46:37;;;;;;;5.78;4.10;;;;;;;-4.38;100.00;93512.13;2080855;28;20025;-84
2022/02/13 01:47:39;;;;;;;6.03;4.65;;;;;;;-4.35;100.00;93511.50;2089682;28;20021;-85
2022/02/13 01:48:40;;;;;;;7.65;4.60;;;;;;;-4.32;100.00;93510.13;2089417;28;20021;-85
2022/02/13 01:49:41;;;;;;;9.95;5.38;;;;;;;-4.34;100.00;93512.28;2080712;28;20025;-85
2022/02/13 01:50:43;;;;;;;7.63;4.40;;;;;;;-4.43;100.00;93508.94;2080740;28;20100;-85
2022/02/13 01:51:44;;;;;;;5.93;4.60;;;;;;;-4.49;100.00;93507.56;2081130;28;20117;-84
2022/02/13 01:52:45;;;;;;;6.95;4.63;;;;;;;-4.44;100.00;93510.00;2080769;28;20456;-85
2022/02/13 01:53:47;;;;;;;5.40;4.40;;;;;;;-4.43;100.00;93501.88;2089169;28;20032;-84
2022/02/13 01:54:48;;;;;;;9.77;4.70;;;;;;;-4.47;100.00;93503.56;2089141;28;20086;-85
2022/02/13 01:55:49;;;;;;;8.40;4.15;;;;;;;-4.44;100.00;93499.56;2072864;28;20064;-86
2022/02/13 01:56:50;;;;;;;8.40;4.13;;;;;;;-4.51;100.00;93509.72;2081076;28;20022;-85
2022/02/13 01:57:51;;;;;;;7.03;4.18;;;;;;;-4.55;100.00;93501.75;2080879;28;20059;-85
2022/02/13 01:58:52;;;;;;;6.40;4.05;;;;;;;-4.42;100.00;93513.06;2083352;28;21783;-85
2022/02/13 01:59:55;;;;;;;4.50;3.92;;;;;;;-4.34;100.00;93504.47;2089201;28;20017;-85
2022/02/13 02:00:56;;;;;;;8.90;4.90;;;;;;;-4.44;100.00;93500.31;2081102;28;20018;-85
2022/02/13 02:01:57;;;;;;;5.75;4.13;;;;;;;-4.49;100.00;93500.50;2080620;28;20056;-85
2022/02/13 02:02:58;;;;;;;6.15;4.63;;;;;;;-4.39;100.00;93499.38;2080763;28;20048;-84
2022/02/13 02:03:59;;;;;;;6.00;4.60;;;;;;;-4.38;100.00;93500.94;2080982;28;20028;-85
2022/02/13 02:05:01;;;;;;;7.32;4.40;;;;;;;-4.34;100.00;93499.22;2080764;28;20041;-85
2022/02/13 02:06:02;;;;;;;5.25;4.50;;;;;;;-4.36;100.00;93502.13;2081189;28;20029;-84
2022/02/13 02:07:04;;;;;;;4.88;3.95;;;;;;;-4.41;100.00;93497.09;2080855;28;20040;-85
2022/02/13 02:08:04;;;;;;;6.60;4.55;;;;;;;-4.45;100.00;93495.41;2081017;28;20060;-85
2022/02/13 02:09:06;;;;;;;5.15;3.88;;;;;;;-4.42;100.00;93494.81;2080294;28;20120;-85
2022/02/13 02:21:37;;;;;;;6.05;5.30;;;;;;;-4.57;100.00;93488.22;2139156;27;20889;-83
2022/02/13 02:22:44;;;;;;;7.90;5.38;;;;;;;-4.55;100.00;93491.31;2120909;28;20367;-83
2022/02/13 02:23:45;;;;;;;6.47;5.30;;;;;;;-4.54;100.00;93484.25;2106539;28;20043;-83
2022/02/13 02:24:46;;;;;;;7.90;5.15;;;;;;;-4.53;100.00;93486.53;2104527;28;20132;-83
2022/02/13 02:26:10;;;;;;;11.25;5.18;;;;;;;-4.48;100.00;93475.94;2112808;28;20020;-83
2022/02/13 02:27:12;;;;;;;6.22;4.65;;;;;;;-4.55;100.00;93475.66;2115858;28;20068;-83
2022/02/13 02:28:13;;;;;;;6.60;4.72;;;;;;;-4.58;100.00;93489.31;2121846;27;20023;-84
2022/02/13 02:29:14;;;;;;;10.25;4.70;;;;;;;-4.62;100.00;93491.00;2121174;28;20736;-83
2022/02/13 02:30:15;;;;;;;9.43;5.07;;;;;;;-4.61;100.00;93482.91;2104428;28;20056;-83
2022/02/13 02:31:16;;;;;;;8.15;5.00;;;;;;;-4.65;100.00;93486.44;2113012;27;20027;-83
2022/02/13 02:32:17;;;;;;;6.30;4.70;;;;;;;-4.66;100.00;93483.03;2112605;28;20028;-83
2022/02/13 02:33:19;;;;;;;7.10;4.72;;;;;;;-4.73;100.00;93489.81;2121385;27;20031;-83
2022/02/13 02:34:20;;;;;;;9.07;5.72;;;;;;;-4.71;100.00;93482.44;2113218;28;20027;-83
2022/02/13 02:35:21;;;;;;;5.35;4.43;;;;;;;-4.75;100.00;93481.53;2104382;28;20032;-83
2022/02/13 02:36:22;;;;;;;8.15;5.05;;;;;;;-4.87;100.00;93480.34;2104426;28;20028;-83
2022/02/13 02:37:24;;;;;;;8.18;5.53;;;;;;;-4.85;100.00;93482.63;2104417;28;20024;-84
2022/02/13 02:38:25;;;;;;;9.50;5.00;;;;;;;-4.88;100.00;93478.03;2112947;28;20034;-83
2022/02/13 02:39:26;;;;;;;7.03;5.18;;;;;;;-4.81;100.00;93484.31;2104514;28;20438;-83
2022/02/13 02:40:27;;;;;;;8.25;4.72;;;;;;;-4.76;100.00;93475.56;2112846;28;20055;-83
2022/02/13 02:41:29;;;;;;;7.30;5.03;;;;;;;-4.68;100.00;93485.22;2112774;28;20034;-83
2022/02/13 02:42:30;;;;;;;7.85;4.93;;;;;;;-4.68;100.00;93484.44;2112903;28;20028;-83
2022/02/13 02:43:31;;;;;;;7.78;4.82;;;;;;;-4.68;100.00;93480.00;2121346;27;20024;-83
2022/02/13 02:44:32;;;;;;;7.82;4.97;;;;;;;-4.81;100.00;93476.50;2112722;28;20123;-83
2022/02/13 02:45:34;;;;;;;8.40;5.10;;;;;;;-4.71;100.00;93474.63;2112917;28;20038;-83
2022/02/13 02:46:37;;;;;;;6.93;4.65;;;;;;;-4.71;100.00;93478.00;2112730;27;20031;-83
2022/02/13 02:47:38;;;;;;;7.68;4.30;;;;;;;-4.71;100.00;93480.59;2112785;28;20063;-83
2022/02/13 02:48:39;;;;;;;6.22;4.43;;;;;;;-4.81;100.00;93473.88;2104452;28;20036;-83
2022/02/13 02:49:40;;;;;;;8.43;4.88;;;;;;;-4.84;100.00;93476.34;2104440;28;20494;-83
2022/02/13 02:50:41;;;;;;;5.38;4.60;;;;;;;-4.68;100.00;93474.00;2104275;28;20406;-84
2022/02/13 02:51:42;;;;;;;5.35;4.10;;;;;;;-4.81;100.00;93468.66;2104302;28;20031;-84
2022/02/13 02:52:43;;;;;;;7.38;4.20;;;;;;;-4.84;100.00;93471.13;2112538;28;20063;-84
2022/02/13 02:53:44;;;;;;;6.63;4.30;;;;;;;-4.86;100.00;93466.22;2121313;27;20027;-83
2022/02/13 02:54:46;;;;;;;7.65;4.53;;;;;;;-4.92;100.00;93470.06;2112525;28;20032;-84
2022/02/13 02:55:46;;;;;;;8.20;4.35;;;;;;;-5.00;100.00;93468.25;2104406;28;20028;-84
2022/02/13 02:56:47;;;;;;;8.85;4.10;;;;;;;-5.03;100.00;93460.28;2112691;28;20055;-84
2022/02/13 02:57:48;;;;;;;5.50;4.30;;;;;;;-5.07;100.00;93460.91;2121295;28;20027;-83
2022/02/13 02:58:49;;;;;;;4.85;3.95;;;;;;;-5.16;100.00;93465.34;2123385;27;20038;-84
2022/02/13 02:59:50;;;;;;;10.93;5.10;;;;;;;-5.01;100.00;93458.88;2112546;28;20050;-84
2022/02/13 03:00:52;;;;;;;5.82;3.88;;;;;;;-5.05;100.00;93460.56;2104155;28;20020;-83
2022/02/13 03:01:53;;;;;;;4.65;3.80;;;;;;;-5.07;100.00;93463.50;2095939;28;20056;-83
2022/02/13 03:02:54;;;;;;;6.35;3.90;;;;;;;-5.09;100.00;93468.25;2095699;28;20107;-84
2022/02/13 03:03:55;;;;;;;6.63;4.15;;;;;;;-5.11;100.00;93462.59;2104259;28;20020;-84
2022/02/13 03:04:56;;;;;;;6.03;4.40;;;;;;;-5.14;100.00;93460.59;2104176;28;20032;-84
2022/02/13 03:05:57;;;;;;;5.28;4.10;;;;;;;-5.17;100.00;93460.47;2095796;28;20070;-84
2022/02/13 03:07:04;;;;;;;6.03;3.83;;;;;;;-5.15;100.00;93459.06;2095856;28;20025;-84
2022/02/13 03:08:05;;;;;;;4.82;4.15;;;;;;;-5.03;100.00;93458.44;2096629;28;20416;-84
2022/02/13 03:09:06;;;;;;;4.10;3.60;;;;;;;-5.08;100.00;93454.16;2095742;28;20028;-83
2022/02/13 03:10:08;;;;;;;7.20;4.10;;;;;;;-5.17;100.00;93455.25;2095675;28;20027;-84
2022/02/13 03:11:09;;;;;;;4.70;4.13;;;;;;;-5.16;100.00;93452.31;2095998;28;20060;-84
2022/02/13 03:12:10;;;;;;;7.30;4.28;;;;;;;-5.09;100.00;93462.28;2103980;28;20024;-84
2022/02/13 03:13:14;;;;;;;5.57;4.13;;;;;;;-5.09;100.00;93457.09;2104162;28;20134;-84
2022/02/13 03:14:15;;;;;;;4.78;3.97;;;;;;;-5.17;100.00;93453.41;2095938;28;20035;-84
2022/02/13 03:15:16;;;;;;;4.68;4.20;;;;;;;-4.97;100.00;93453.81;2087591;28;20026;-83
2022/02/13 03:16:17;;;;;;;5.05;4.15;;;;;;;-5.06;100.00;93456.44;2087632;28;20495;-83
2022/02/13 03:17:19;;;;;;;7.63;4.82;;;;;;;-5.08;100.00;93448.94;2087424;28;20029;-84
2022/02/13 03:18:20;;;;;;;4.63;4.07;;;;;;;-5.10;100.00;93455.53;2088057;28;20112;-84
2022/02/13 03:19:21;;;;;;;7.30;4.90;;;;;;;-5.04;100.00;93450.94;2095882;28;20039;-84
2022/02/13 03:20:22;;;;;;;7.05;4.40;;;;;;;-5.01;100.00;93455.50;2095244;28;20025;-83
2022/02/13 03:21:23;;;;;;;9.10;4.85;;;;;;;-4.92;100.00;93451.81;2085815;28;20100;-83
2022/02/13 03:22:24;;;;;;;8.13;4.70;;;;;;;-4.98;100.00;93450.44;2099880;28;20039;-83
2022/02/13 03:23:26;;;;;;;5.82;4.53;;;;;;;-4.93;100.00;93450.28;2105636;28;20146;-84
2022/02/13 03:24:27;;;;;;;7.18;4.90;;;;;;;-4.86;100.00;93450.59;2106663;28;20035;-83
2022/02/13 03:25:28;;;;;;;6.70;4.43;;;;;;;-4.91;100.00;93452.59;2090345;28;20563;-83
2022/02/13 03:26:29;;;;;;;7.10;4.57;;;;;;;-4.86;100.00;93455.03;2089918;28;20040;-83
2022/02/13 03:27:30;;;;;;;6.25;4.50;;;;;;;-4.84;100.00;93447.66;2090378;28;20494;-83
2022/02/13 03:28:31;;;;;;;6.80;4.85;;;;;;;-4.83;100.00;93454.41;2098514;28;20024;-84
2022/02/13 03:29:32;;;;;;;10.40;4.90;;;;;;;-4.89;100.00;93450.44;2098422;28;20040;-83
2022/02/13 03:30:34;;;;;;;9.35;4.95;;;;;;;-4.92;100.00;93449.19;2098477;28;20102;-83
2022/02/13 03:31:35;;;;;;;8.77;5.20;;;;;;;-4.96;100.00;93445.72;2098485;28;20028;-84
2022/02/13 03:32:36;;;;;;;5.72;4.50;;;;;;;-4.99;100.00;93448.94;2098460;28;20036;-83
2022/02/13 03:33:37;;;;;;;7.03;4.70;;;;;;;-4.94;100.00;93446.16;2106671;28;20478;-83
2022/02/13 03:34:37;;;;;;;8.02;5.40;;;;;;;-5.01;100.00;93448.47;2098558;28;20053;-83
2022/02/13 03:35:39;;;;;;;6.38;4.80;;;;;;;-4.77;100.00;93445.34;2106905;28;20093;-83
2022/02/13 03:36:40;;;;;;;7.63;4.43;;;;;;;-4.82;100.00;93441.06;2106557;28;20023;-83
2022/02/13 03:37:43;;;;;;;5.22;4.03;;;;;;;-4.73;100.00;93448.13;2090060;28;20098;-83
2022/02/13 03:38:44;;;;;;;5.63;4.28;;;;;;;-4.57;100.00;93447.28;2106943;28;20112;-83
2022/02/13 03:39:45;;;;;;;7.53;4.70;;;;;;;-4.54;100.00;93445.13;2115029;28;20027;-84
2022/02/13 03:40:47;;;;;;;7.22;4.65;;;;;;;-4.63;100.00;93443.31;2098308;28;20079;-84
2022/02/13 03:41:48;;;;;;;5.88;4.55;;;;;;;-4.50;100.00;93451.25;2090549;28;20028;-83
2022/02/13 03:42:49;;;;;;;7.35;4.80;;;;;;;-4.24;100.00;93451.16;2090244;28;20036;-83
2022/02/13 03:43:50;;;;;;;7.53;4.47;;;;;;;-4.59;100.00;93448.66;2098368;28;20048;-83
2022/02/13 03:44:51;;;;;;;5.03;4.32;;;;;;;-4.74;100.00;93441.34;2098480;28;20111;-83
2022/02/13 03:45:52;;;;;;;7.95;4.60;;;;;;;-4.84;100.00;93453.63;2090022;28;20028;-83
2022/02/13 03:46:53;;;;;;;6.68;4.53;;;;;;;-4.88;100.00;93449.34;2098374;28;20684;-83
2022/02/13 03:47:57;;;;;;;7.45;4.82;;;;;;;-4.98;100.00;93447.09;2090160;28;20136;-83
2022/02/13 03:48:58;;;;;;;6.53;4.88;;;;;;;-4.98;100.00;93447.84;2098973;28;20086;-82
2022/02/13 03:49:59;;;;;;;7.68;4.88;;;;;;;-4.93;100.00;93446.91;2098265;28;20589;-83
2022/02/13 03:51:00;;;;;;;9.75;5.28;;;;;;;-4.97;100.00;93441.56;2098144;28;20039;-82
2022/02/13 03:52:01;;;;;;;9.40;4.70;;;;;;;-4.96;100.00;93447.53;2098122;28;20238;-82
2022/02/13 03:53:02;;;;;;;4.45;4.00;;;;;;;-5.00;100.00;93439.59;2090088;28;20115;-83
2022/02/13 03:54:04;;;;;;;5.47;4.55;;;;;;;-5.00;100.00;93438.78;2089981;28;20123;-84
2022/02/13 03:55:06;;;;;;;9.73;4.78;;;;;;;-5.01;100.00;93443.25;2089978;28;20368;-84
2022/02/13 03:56:07;;;;;;;6.32;4.25;;;;;;;-5.04;100.00;93440.53;2090149;28;20029;-83
2022/02/13 03:57:08;;;;;;;7.80;4.47;;;;;;;-4.96;100.00;93439.72;2090009;28;20117;-84
2022/02/13 03:58:09;;;;;;;6.28;4.53;;;;;;;-5.02;100.00;93439.13;2090647;28;20705;-84
2022/02/13 03:59:10;;;;;;;6.45;4.20;;;;;;;-4.94;100.00;93434.97;2092068;28;20107;-84
2022/02/13 04:00:15;;;;;;;7.10;4.47;;;;;;;-4.99;100.00;93435.91;2098245;28;20020;-83
2022/02/13 04:01:16;;;;;;;4.30;3.67;;;;;;;-4.86;100.00;93436.78;2090894;28;20032;-84
2022/02/13 04:02:17;;;;;;;6.13;4.13;;;;;;;-4.94;100.00;93425.31;2098229;28;20415;-84
2022/02/13 04:03:18;;;;;;;7.15;3.95;;;;;;;-4.83;100.00;93433.53;2098246;28;20368;-84
2022/02/13 04:04:18;;;;;;;4.25;3.33;;;;;;;-4.94;100.00;93427.91;2098154;28;20032;-84
2022/02/13 04:05:19;;;;;;;6.82;3.70;;;;;;;-4.91;100.00;93436.97;2098169;28;20403;-84
2022/02/13 04:06:20;;;;;;;7.90;4.43;;;;;;;-4.76;100.00;93433.84;2089203;28;20039;-83
2022/02/13 04:07:21;;;;;;;5.30;4.25;;;;;;;-4.96;100.00;93434.50;2098109;28;20102;-83
2022/02/13 04:08:22;;;;;;;10.95;3.92;;;;;;;-4.92;100.00;93438.00;2098035;28;20094;-83
2022/02/13 04:09:23;;;;;;;5.80;3.83;;;;;;;-4.93;100.00;93426.81;2089674;28;20079;-83
2022/02/13 04:10:24;;;;;;;5.88;4.00;;;;;;;-4.86;100.00;93434.94;2097820;28;20458;-83
2022/02/13 04:11:25;;;;;;;7.38;4.35;;;;;;;-4.80;100.00;93438.16;2106078;28;20020;-84
2022/02/13 04:12:26;;;;;;;6.85;4.30;;;;;;;-4.90;100.00;93438.50;2097765;28;20047;-83
2022/02/13 04:13:27;;;;;;;5.75;4.35;;;;;;;-4.96;100.00;93443.09;2097810;28;20147;-83
2022/02/13 04:14:28;;;;;;;7.28;4.45;;;;;;;-4.95;100.00;93434.22;2097806;28;20020;-83
2022/02/13 04:15:29;;;;;;;6.13;4.05;;;;;;;-4.97;100.00;93438.19;2097549;28;20030;-83
2022/02/13 04:16:30;;;;;;;4.72;4.03;;;;;;;-4.98;100.00;93436.66;2097322;28;20519;-83
2022/02/13 04:17:31;;;;;;;4.65;3.85;;;;;;;-5.01;100.00;93443.25;2105692;28;20059;-83
2022/02/13 04:18:32;;;;;;;5.35;4.30;;;;;;;-5.12;100.00;93449.88;2105752;28;20475;-83
2022/02/13 04:19:33;;;;;;;5.90;4.28;;;;;;;-5.03;100.00;93442.03;2089220;28;20029;-83
2022/02/13 04:20:34;;;;;;;4.50;4.03;;;;;;;-5.02;100.00;93440.97;2106102;28;20209;-83
2022/02/13 04:21:35;;;;;;;6.78;4.40;;;;;;;-5.00;100.00;93438.78;2106036;28;20043;-83
2022/02/13 04:22:36;;;;;;;5.03;4.38;;;;;;;-4.95;100.00;93436.06;2097800;28;20021;-83
2022/02/13 04:23:37;;;;;;;6.57;4.53;;;;;;;-4.90;100.00;93433.28;2097655;28;20032;-83
2022/02/13 04:24:38;;;;;;;4.60;4.13;;;;;;;-4.87;100.00;93428.22;2097924;28;20510;-83
2022/02/13 04:25:40;;;;;;;6.85;4.32;;;;;;;-4.86;100.00;93429.72;2106137;28;20016;-83
2022/02/13 04:26:41;;;;;;;7.13;4.15;;;;;;;-4.91;100.00;93429.91;2089375;28;20017;-83
2022/02/13 04:27:41;;;;;;;11.82;5.10;;;;;;;-4.92;100.00;93435.41;2097843;28;20434;-84
2022/02/13 04:28:42;;;;;;;9.27;4.70;;;;;;;-4.91;100.00;93423.94;2098005;28;20107;-83
2022/02/13 04:29:43;;;;;;;8.30;4.53;;;;;;;-4.91;100.00;93437.72;2097786;28;20025;-83
2022/02/13 04:30:45;;;;;;;7.15;5.00;;;;;;;-4.95;100.00;93434.22;2089572;28;20099;-83
2022/02/13 04:31:46;;;;;;;6.90;4.82;;;;;;;-4.93;100.00;93436.50;2097799;28;20087;-83
2022/02/13 04:32:47;;;;;;;8.75;4.28;;;;;;;-4.89;100.00;93434.81;2097808;28;20454;-83
2022/02/13 04:33:48;;;;;;;5.82;4.63;;;;;;;-5.02;100.00;93435.75;2097380;28;20068;-84
2022/02/13 04:34:49;;;;;;;8.73;4.40;;;;;;;-5.01;100.00;93432.81;2105870;28;20549;-83
2022/02/13 04:35:50;;;;;;;8.73;4.50;;;;;;;-4.82;100.00;93435.09;2097796;28;20031;-83
2022/02/13 04:36:51;;;;;;;7.57;4.05;;;;;;;-4.87;100.00;93435.28;2089774;28;20029;-83
2022/02/13 04:37:53;;;;;;;7.15;4.80;;;;;;;-5.03;100.00;93432.38;2089669;28;20021;-84
2022/02/13 04:38:54;;;;;;;7.10;5.03;;;;;;;-4.96;100.00;93429.28;2089875;28;20108;-83
2022/02/13 04:39:55;;;;;;;6.05;3.85;;;;;;;-4.85;100.00;93430.50;2089720;28;20075;-83
2022/02/13 04:40:56;;;;;;;6.90;4.68;;;;;;;-4.96;100.00;93424.06;2089605;28;20521;-83
2022/02/13 04:41:57;;;;;;;4.60;4.03;;;;;;;-5.07;100.00;93427.00;2097961;28;20426;-83
2022/02/13 04:42:58;;;;;;;7.22;4.32;;;;;;;-5.08;100.00;93419.53;2098006;28;20020;-83
2022/02/13 04:43:59;;;;;;;5.95;4.07;;;;;;;-5.12;100.00;93421.97;2089887;28;20051;-83
2022/02/13 04:45:00;;;;;;;6.43;4.40;;;;;;;-5.13;100.00;93422.28;2089565;28;20020;-83
2022/02/13 04:46:00;;;;;;;5.85;4.53;;;;;;;-5.18;100.00;93423.22;2089583;28;20055;-83
2022/02/13 04:47:03;;;;;;;4.75;3.92;;;;;;;-5.20;100.00;93420.16;2089428;28;20578;-84
2022/02/13 04:48:05;;;;;;;5.47;4.50;;;;;;;-5.30;100.00;93422.31;2089757;28;20037;-83
2022/02/13 04:49:06;;;;;;;6.13;4.10;;;;;;;-5.30;100.00;93417.09;2097975;28;20020;-83
2022/02/13 04:50:23;;;;;;;7.18;4.90;;;;;;;-5.22;100.00;93424.16;2089484;28;20451;-83
2022/02/13 04:51:24;;;;;;;8.25;4.20;;;;;;;-5.30;100.00;93423.06;2099816;28;20040;-82
2022/02/13 04:52:25;;;;;;;6.95;4.32;;;;;;;-5.26;100.00;93420.63;2089387;28;20518;-83
2022/02/13 04:53:26;;;;;;;8.73;4.70;;;;;;;-5.21;100.00;93410.81;2081237;28;20531;-83
2022/02/13 04:54:27;;;;;;;6.50;4.85;;;;;;;-5.27;100.00;93419.06;2081490;28;20190;-83
2022/02/13 04:55:28;;;;;;;6.30;4.72;;;;;;;-5.30;100.00;93414.50;2089400;28;20017;-83
2022/02/13 04:56:29;;;;;;;7.03;4.38;;;;;;;-5.40;100.00;93415.56;2089387;28;20029;-83